sensor_id;sensor_type;location;lat;lon;timestamp;P1;durP1;ratioP1;P2;durP2;ratioP2
5827;SDS011;42583;50.240;8.444;2022-08-21T00:07:19;16.27;;;6.03;;
5827;SDS011;42583;50.240;8.444;2022-08-21T00:22:20;13.20;;;6.03;;
5827;SDS011;42583;50.240;8.444;2022-08-21T00:37:20;12.35;;;7.50;;
5827;SDS011;42583;50.240;8.444;2022-08-21T00:52:22;13.02;;;8.65;;
5827;SDS011;42583;50.240;8.444;2022-08-21T01:07:26;18.52;;;10.10;;
5827;SDS011;42583;50.240;8.444;2022-08-21T01:22:27;19.98;;;10.15;;
5827;SDS011;42583;50.240;8.444;2022-08-21T01:37:28;17.20;;;9.60;;
5827;SDS011;42583;50.240;8.444;2022-08-21T01:52:28;13.15;;;7.80;;
5827;SDS011;42583;50.240;8.444;2022-08-21T02:07:35;13.60;;;8.23;;
5827;SDS011;42583;50.240;8.444;2022-08-21T02:22:37;16.80;;;9.38;;
5827;SDS011;42583;50.240;8.444;2022-08-21T02:53:09;19.75;;;10.95;;
5827;SDS011;42583;50.240;8.444;2022-08-21T03:08:11;17.02;;;10.02;;
5827;SDS011;42583;50.240;8.444;2022-08-21T03:23:13;16.45;;;10.10;;
5827;SDS011;42583;50.240;8.444;2022-08-21T03:38:15;22.92;;;11.45;;
5827;SDS011;42583;50.240;8.444;2022-08-21T03:53:16;17.75;;;10.45;;
5827;SDS011;42583;50.240;8.444;2022-08-21T04:08:17;21.00;;;11.10;;
5827;SDS011;42583;50.240;8.444;2022-08-21T04:23:19;21.13;;;11.32;;
5827;SDS011;42583;50.240;8.444;2022-08-21T04:38:20;20.35;;;10.50;;
5827;SDS011;42583;50.240;8.444;2022-08-21T04:53:36;18.30;;;9.40;;
5827;SDS011;42583;50.240;8.444;2022-08-21T05:08:43;18.17;;;8.68;;
5827;SDS011;42583;50.240;8.444;2022-08-21T05:23:46;17.30;;;7.10;;
5827;SDS011;42583;50.240;8.444;2022-08-21T05:38:47;14.52;;;7.93;;
5827;SDS011;42583;50.240;8.444;2022-08-21T05:53:48;16.38;;;8.32;;
5827;SDS011;42583;50.240;8.444;2022-08-21T06:08:48;20.52;;;9.65;;
5827;SDS011;42583;50.240;8.444;2022-08-21T06:23:49;18.88;;;10.10;;
5827;SDS011;42583;50.240;8.444;2022-08-21T06:38:49;23.30;;;8.60;;
5827;SDS011;42583;50.240;8.444;2022-08-21T06:53:50;16.13;;;7.22;;
5827;SDS011;42583;50.240;8.444;2022-08-21T07:08:51;13.10;;;4.43;;
5827;SDS011;42583;50.240;8.444;2022-08-21T07:23:51;13.05;;;5.38;;
5827;SDS011;42583;50.240;8.444;2022-08-21T07:38:52;12.82;;;2.63;;
5827;SDS011;42583;50.240;8.444;2022-08-21T07:53:54;12.20;;;2.28;;
5827;SDS011;42583;50.240;8.444;2022-08-21T08:08:55;8.83;;;2.50;;
5827;SDS011;42583;50.240;8.444;2022-08-21T08:23:56;10.98;;;2.80;;
5827;SDS011;42583;50.240;8.444;2022-08-21T08:38:56;12.23;;;2.80;;
5827;SDS011;42583;50.240;8.444;2022-08-21T08:53:58;15.75;;;3.60;;
5827;SDS011;42583;50.240;8.444;2022-08-21T09:24:22;10.25;;;2.65;;
5827;SDS011;42583;50.240;8.444;2022-08-21T09:39:38;7.75;;;2.30;;
5827;SDS011;42583;50.240;8.444;2022-08-21T09:54:39;10.45;;;2.25;;
5827;SDS011;42583;50.240;8.444;2022-08-21T10:09:41;7.75;;;2.30;;
5827;SDS011;42583;50.240;8.444;2022-08-21T10:40:26;5.75;;;2.05;;
5827;SDS011;42583;50.240;8.444;2022-08-21T10:55:33;7.60;;;2.63;;
5827;SDS011;42583;50.240;8.444;2022-08-21T11:10:42;7.40;;;2.10;;
5827;SDS011;42583;50.240;8.444;2022-08-21T11:56:13;6.38;;;1.95;;
5827;SDS011;42583;50.240;8.444;2022-08-21T12:26:21;3.72;;;1.40;;
5827;SDS011;42583;50.240;8.444;2022-08-21T12:41:43;5.18;;;1.30;;
5827;SDS011;42583;50.240;8.444;2022-08-21T12:56:55;5.13;;;1.42;;
5827;SDS011;42583;50.240;8.444;2022-08-21T13:12:01;4.37;;;1.33;;
5827;SDS011;42583;50.240;8.444;2022-08-21T13:27:01;5.57;;;1.30;;
5827;SDS011;42583;50.240;8.444;2022-08-21T13:42:04;5.38;;;1.30;;
5827;SDS011;42583;50.240;8.444;2022-08-21T13:57:19;3.57;;;1.10;;
5827;SDS011;42583;50.240;8.444;2022-08-21T14:12:38;3.80;;;1.27;;
5827;SDS011;42583;50.240;8.444;2022-08-21T14:27:44;3.67;;;1.20;;
5827;SDS011;42583;50.240;8.444;2022-08-21T14:42:51;3.00;;;1.17;;
5827;SDS011;42583;50.240;8.444;2022-08-21T14:57:52;2.37;;;1.13;;
5827;SDS011;42583;50.240;8.444;2022-08-21T15:12:56;3.05;;;0.93;;
5827;SDS011;42583;50.240;8.444;2022-08-21T15:27:56;3.33;;;1.00;;
5827;SDS011;42583;50.240;8.444;2022-08-21T15:43:00;4.00;;;1.10;;
5827;SDS011;42583;50.240;8.444;2022-08-21T15:58:02;3.33;;;0.95;;
5827;SDS011;42583;50.240;8.444;2022-08-21T16:13:04;3.63;;;1.20;;
5827;SDS011;42583;50.240;8.444;2022-08-21T16:28:12;4.13;;;1.00;;
5827;SDS011;42583;50.240;8.444;2022-08-21T16:43:14;3.15;;;1.30;;
5827;SDS011;42583;50.240;8.444;2022-08-21T16:58:19;4.70;;;1.40;;
5827;SDS011;42583;50.240;8.444;2022-08-21T17:13:25;3.22;;;1.10;;
5827;SDS011;42583;50.240;8.444;2022-08-21T17:28:26;3.33;;;1.17;;
5827;SDS011;42583;50.240;8.444;2022-08-21T17:43:30;4.32;;;1.25;;
5827;SDS011;42583;50.240;8.444;2022-08-21T17:58:32;6.40;;;1.10;;
5827;SDS011;42583;50.240;8.444;2022-08-21T18:13:34;4.90;;;1.30;;
5827;SDS011;42583;50.240;8.444;2022-08-21T18:28:36;2.38;;;1.00;;
5827;SDS011;42583;50.240;8.444;2022-08-21T18:43:37;3.53;;;1.20;;
5827;SDS011;42583;50.240;8.444;2022-08-21T18:58:38;4.03;;;1.10;;
5827;SDS011;42583;50.240;8.444;2022-08-21T19:13:39;3.45;;;1.10;;
5827;SDS011;42583;50.240;8.444;2022-08-21T19:28:43;3.15;;;1.00;;
5827;SDS011;42583;50.240;8.444;2022-08-21T19:43:50;4.35;;;1.17;;
5827;SDS011;42583;50.240;8.444;2022-08-21T19:58:53;3.50;;;0.85;;
5827;SDS011;42583;50.240;8.444;2022-08-21T20:13:54;2.97;;;0.98;;
5827;SDS011;42583;50.240;8.444;2022-08-21T20:28:56;4.28;;;1.00;;
5827;SDS011;42583;50.240;8.444;2022-08-21T20:43:57;3.90;;;1.02;;
5827;SDS011;42583;50.240;8.444;2022-08-21T20:59:05;2.35;;;1.00;;
5827;SDS011;42583;50.240;8.444;2022-08-21T21:14:12;3.58;;;1.00;;
5827;SDS011;42583;50.240;8.444;2022-08-21T21:29:37;2.40;;;1.10;;
5827;SDS011;42583;50.240;8.444;2022-08-21T22:15:19;6.72;;;0.93;;
5827;SDS011;42583;50.240;8.444;2022-08-21T22:30:35;3.78;;;1.05;;
5827;SDS011;42583;50.240;8.444;2022-08-21T23:31:43;4.65;;;1.20;;
5827;SDS011;42583;50.240;8.444;2022-08-21T23:47:28;5.43;;;1.23;;
